sensor_id;sensor_type;location;lat;lon;timestamp;temperature;humidity
19732;DHT22;10017;54.350;18.532;2022-10-16T00:00:51;12.70;99.90
19732;DHT22;10017;54.350;18.532;2022-10-16T00:03:23;12.80;99.90
19732;DHT22;10017;54.350;18.532;2022-10-16T00:06:00;12.80;99.90
19732;DHT22;10017;54.350;18.532;2022-10-16T00:08:32;12.90;99.90
19732;DHT22;10017;54.350;18.532;2022-10-16T00:11:05;12.90;99.90
19732;DHT22;10017;54.350;18.532;2022-10-16T00:13:38;12.90;99.90
19732;DHT22;10017;54.350;18.532;2022-10-16T00:16:13;12.90;99.90
19732;DHT22;10017;54.350;18.532;2022-10-16T00:18:45;12.90;99.90
19732;DHT22;10017;54.350;18.532;2022-10-16T00:21:21;13.00;99.90
19732;DHT22;10017;54.350;18.532;2022-10-16T00:23:54;13.00;99.90
19732;DHT22;10017;54.350;18.532;2022-10-16T00:26:29;13.00;99.90
19732;DHT22;10017;54.350;18.532;2022-10-16T00:29:01;13.00;99.90
19732;DHT22;10017;54.350;18.532;2022-10-16T00:31:36;13.00;99.90
19732;DHT22;10017;54.350;18.532;2022-10-16T00:34:08;12.90;99.90
19732;DHT22;10017;54.350;18.532;2022-10-16T00:36:40;13.00;99.90
19732;DHT22;10017;54.350;18.532;2022-10-16T00:39:11;13.00;99.90
19732;DHT22;10017;54.350;18.532;2022-10-16T00:41:43;13.00;99.90
19732;DHT22;10017;54.350;18.532;2022-10-16T00:47:29;13.10;99.90
19732;DHT22;10017;54.350;18.532;2022-10-16T00:50:04;13.10;99.90
19732;DHT22;10017;54.350;18.532;2022-10-16T00:52:39;13.10;99.90
19732;DHT22;10017;54.350;18.532;2022-10-16T00:55:11;13.10;99.90
19732;DHT22;10017;54.350;18.532;2022-10-16T00:57:44;13.10;99.90
19732;DHT22;10017;54.350;18.532;2022-10-16T01:00:18;13.10;99.90
19732;DHT22;10017;54.350;18.532;2022-10-16T01:02:58;13.10;99.90
19732;DHT22;10017;54.350;18.532;2022-10-16T01:05:39;13.10;99.90
19732;DHT22;10017;54.350;18.532;2022-10-16T01:08:18;13.20;99.90
19732;DHT22;10017;54.350;18.532;2022-10-16T01:13:27;13.20;99.90
19732;DHT22;10017;54.350;18.532;2022-10-16T01:16:09;13.20;99.90
19732;DHT22;10017;54.350;18.532;2022-10-16T01:18:50;13.20;99.90
19732;DHT22;10017;54.350;18.532;2022-10-16T01:21:24;13.20;99.90
19732;DHT22;10017;54.350;18.532;2022-10-16T01:24:03;13.20;99.90
19732;DHT22;10017;54.350;18.532;2022-10-16T01:29:26;13.20;99.90
19732;DHT22;10017;54.350;18.532;2022-10-16T01:32:10;13.30;99.90
19732;DHT22;10017;54.350;18.532;2022-10-16T01:35:47;13.30;99.90
19732;DHT22;10017;54.350;18.532;2022-10-16T01:37:48;13.30;99.90
19732;DHT22;10017;54.350;18.532;2022-10-16T01:40:22;13.30;99.90
19732;DHT22;10017;54.350;18.532;2022-10-16T01:42:56;13.30;99.90
19732;DHT22;10017;54.350;18.532;2022-10-16T01:45:35;13.30;99.90
19732;DHT22;10017;54.350;18.532;2022-10-16T01:48:10;13.40;99.90
19732;DHT22;10017;54.350;18.532;2022-10-16T01:50:44;13.40;99.90
19732;DHT22;10017;54.350;18.532;2022-10-16T01:53:15;13.40;99.90
19732;DHT22;10017;54.350;18.532;2022-10-16T01:55:48;13.50;99.90
19732;DHT22;10017;54.350;18.532;2022-10-16T01:58:20;13.50;99.90
19732;DHT22;10017;54.350;18.532;2022-10-16T02:00:56;13.50;99.90
19732;DHT22;10017;54.350;18.532;2022-10-16T02:03:30;13.50;99.90
19732;DHT22;10017;54.350;18.532;2022-10-16T02:06:03;13.50;99.90
19732;DHT22;10017;54.350;18.532;2022-10-16T02:08:35;13.50;99.90
19732;DHT22;10017;54.350;18.532;2022-10-16T02:11:09;13.50;99.90
19732;DHT22;10017;54.350;18.532;2022-10-16T02:13:43;13.50;99.90
19732;DHT22;10017;54.350;18.532;2022-10-16T02:16:16;13.40;99.90
19732;DHT22;10017;54.350;18.532;2022-10-16T02:18:48;13.40;99.90
19732;DHT22;10017;54.350;18.532;2022-10-16T02:21:27;13.30;99.90
19732;DHT22;10017;54.350;18.532;2022-10-16T02:27:11;13.20;99.90
19732;DHT22;10017;54.350;18.532;2022-10-16T02:29:46;13.10;99.90
19732;DHT22;10017;54.350;18.532;2022-10-16T02:32:22;13.10;99.90
19732;DHT22;10017;54.350;18.532;2022-10-16T02:34:55;13.00;99.90
19732;DHT22;10017;54.350;18.532;2022-10-16T02:37:27;12.90;99.90
19732;DHT22;10017;54.350;18.532;2022-10-16T02:40:00;12.90;99.90
19732;DHT22;10017;54.350;18.532;2022-10-16T02:42:33;12.90;99.90
19732;DHT22;10017;54.350;18.532;2022-10-16T02:45:06;12.80;99.90
19732;DHT22;10017;54.350;18.532;2022-10-16T02:47:41;12.80;99.90
19732;DHT22;10017;54.350;18.532;2022-10-16T02:50:13;12.80;99.90
19732;DHT22;10017;54.350;18.532;2022-10-16T02:52:45;12.70;99.90
19732;DHT22;10017;54.350;18.532;2022-10-16T02:55:16;12.70;99.90
19732;DHT22;10017;54.350;18.532;2022-10-16T02:57:50;12.70;99.90
19732;DHT22;10017;54.350;18.532;2022-10-16T03:00:24;12.70;99.90
19732;DHT22;10017;54.350;18.532;2022-10-16T03:02:56;12.70;99.90
19732;DHT22;10017;54.350;18.532;2022-10-16T03:05:28;12.70;99.90
19732;DHT22;10017;54.350;18.532;2022-10-16T03:07:59;12.70;99.90
19732;DHT22;10017;54.350;18.532;2022-10-16T03:10:32;12.70;99.90
19732;DHT22;10017;54.350;18.532;2022-10-16T03:13:03;12.70;99.90
19732;DHT22;10017;54.350;18.532;2022-10-16T03:15:35;12.70;99.90
19732;DHT22;10017;54.350;18.532;2022-10-16T03:18:07;12.70;99.90
19732;DHT22;10017;54.350;18.532;2022-10-16T03:20:39;12.80;99.90
19732;DHT22;10017;54.350;18.532;2022-10-16T03:23:10;12.70;99.90
19732;DHT22;10017;54.350;18.532;2022-10-16T03:25:44;12.80;99.90
19732;DHT22;10017;54.350;18.532;2022-10-16T03:28:18;12.80;99.90
19732;DHT22;10017;54.350;18.532;2022-10-16T03:30:50;12.80;99.90
19732;DHT22;10017;54.350;18.532;2022-10-16T03:33:22;12.80;99.90
19732;DHT22;10017;54.350;18.532;2022-10-16T03:35:54;12.80;99.90
19732;DHT22;10017;54.350;18.532;2022-10-16T03:38:26;12.90;99.90
19732;DHT22;10017;54.350;18.532;2022-10-16T03:40:58;12.90;99.90
19732;DHT22;10017;54.350;18.532;2022-10-16T03:43:29;12.90;99.90
19732;DHT22;10017;54.350;18.532;2022-10-16T03:46:01;12.90;99.90
19732;DHT22;10017;54.350;18.532;2022-10-16T03:48:33;12.90;99.90
19732;DHT22;10017;54.350;18.532;2022-10-16T03:51:05;12.90;99.90
19732;DHT22;10017;54.350;18.532;2022-10-16T03:53:39;13.00;99.90
19732;DHT22;10017;54.350;18.532;2022-10-16T03:56:11;13.00;99.90
19732;DHT22;10017;54.350;18.532;2022-10-16T03:58:44;13.00;99.90
19732;DHT22;10017;54.350;18.532;2022-10-16T04:01:18;13.00;99.90
19732;DHT22;10017;54.350;18.532;2022-10-16T04:03:50;13.00;99.90
19732;DHT22;10017;54.350;18.532;2022-10-16T04:06:24;13.00;99.90
19732;DHT22;10017;54.350;18.532;2022-10-16T04:08:56;13.00;99.90
19732;DHT22;10017;54.350;18.532;2022-10-16T04:11:28;13.00;99.90
19732;DHT22;10017;54.350;18.532;2022-10-16T04:14:00;13.00;99.90
19732;DHT22;10017;54.350;18.532;2022-10-16T04:16:31;13.00;99.90
19732;DHT22;10017;54.350;18.532;2022-10-16T04:19:03;13.00;99.90
19732;DHT22;10017;54.350;18.532;2022-10-16T04:21:35;13.10;99.90
19732;DHT22;10017;54.350;18.532;2022-10-16T04:24:07;13.10;99.90
19732;DHT22;10017;54.350;18.532;2022-10-16T04:26:39;13.10;99.90
19732;DHT22;10017;54.350;18.532;2022-10-16T04:29:13;13.10;99.90
19732;DHT22;10017;54.350;18.532;2022-10-16T04:31:44;13.10;99.90
19732;DHT22;10017;54.350;18.532;2022-10-16T04:34:18;13.10;99.90
19732;DHT22;10017;54.350;18.532;2022-10-16T04:36:50;13.10;99.90
19732;DHT22;10017;54.350;18.532;2022-10-16T04:39:22;13.10;99.90
19732;DHT22;10017;54.350;18.532;2022-10-16T04:41:56;13.20;99.90
19732;DHT22;10017;54.350;18.532;2022-10-16T04:44:28;13.20;99.90
19732;DHT22;10017;54.350;18.532;2022-10-16T04:47:00;13.20;99.90
19732;DHT22;10017;54.350;18.532;2022-10-16T04:49:36;13.10;99.90
19732;DHT22;10017;54.350;18.532;2022-10-16T04:52:07;13.10;99.90
19732;DHT22;10017;54.350;18.532;2022-10-16T04:54:43;13.10;99.90
19732;DHT22;10017;54.350;18.532;2022-10-16T04:57:17;13.20;99.90
19732;DHT22;10017;54.350;18.532;2022-10-16T04:59:49;13.20;99.90
19732;DHT22;10017;54.350;18.532;2022-10-16T05:02:21;13.20;99.90
19732;DHT22;10017;54.350;18.532;2022-10-16T05:04:55;13.20;99.90
19732;DHT22;10017;54.350;18.532;2022-10-16T05:07:27;13.20;99.90
19732;DHT22;10017;54.350;18.532;2022-10-16T05:09:59;13.20;99.90
19732;DHT22;10017;54.350;18.532;2022-10-16T05:12:31;13.20;99.90
19732;DHT22;10017;54.350;18.532;2022-10-16T05:15:03;13.20;99.90
19732;DHT22;10017;54.350;18.532;2022-10-16T05:17:35;13.30;99.90
19732;DHT22;10017;54.350;18.532;2022-10-16T05:20:11;13.30;99.90
19732;DHT22;10017;54.350;18.532;2022-10-16T05:22:43;13.30;99.90
19732;DHT22;10017;54.350;18.532;2022-10-16T05:25:14;13.30;99.90
19732;DHT22;10017;54.350;18.532;2022-10-16T05:27:47;13.30;99.90
19732;DHT22;10017;54.350;18.532;2022-10-16T05:30:19;13.30;99.90
19732;DHT22;10017;54.350;18.532;2022-10-16T05:32:51;13.30;99.90
19732;DHT22;10017;54.350;18.532;2022-10-16T05:35:28;13.30;99.90
19732;DHT22;10017;54.350;18.532;2022-10-16T05:37:59;13.30;99.90
19732;DHT22;10017;54.350;18.532;2022-10-16T05:40:31;13.30;99.90
19732;DHT22;10017;54.350;18.532;2022-10-16T05:43:03;13.40;99.90
19732;DHT22;10017;54.350;18.532;2022-10-16T05:45:37;13.40;99.90
19732;DHT22;10017;54.350;18.532;2022-10-16T05:48:09;13.40;99.90
19732;DHT22;10017;54.350;18.532;2022-10-16T05:50:43;13.40;99.90
19732;DHT22;10017;54.350;18.532;2022-10-16T05:53:15;13.40;99.90
19732;DHT22;10017;54.350;18.532;2022-10-16T05:55:51;13.50;99.90
19732;DHT22;10017;54.350;18.532;2022-10-16T05:58:23;13.50;99.90
19732;DHT22;10017;54.350;18.532;2022-10-16T06:00:56;13.50;99.90
19732;DHT22;10017;54.350;18.532;2022-10-16T06:03:28;13.50;99.90
19732;DHT22;10017;54.350;18.532;2022-10-16T06:06:09;13.50;99.90
19732;DHT22;10017;54.350;18.532;2022-10-16T06:08:43;13.50;99.90
19732;DHT22;10017;54.350;18.532;2022-10-16T06:11:18;13.60;99.90
19732;DHT22;10017;54.350;18.532;2022-10-16T06:13:53;13.60;99.90
19732;DHT22;10017;54.350;18.532;2022-10-16T06:16:25;13.60;99.90
19732;DHT22;10017;54.350;18.532;2022-10-16T06:18:58;13.60;99.90
19732;DHT22;10017;54.350;18.532;2022-10-16T06:21:31;13.60;99.90
19732;DHT22;10017;54.350;18.532;2022-10-16T06:24:03;13.60;99.90
19732;DHT22;10017;54.350;18.532;2022-10-16T06:26:35;13.60;99.90
19732;DHT22;10017;54.350;18.532;2022-10-16T06:29:07;13.60;99.90
19732;DHT22;10017;54.350;18.532;2022-10-16T06:31:39;13.60;99.90
19732;DHT22;10017;54.350;18.532;2022-10-16T06:34:11;13.60;99.90
19732;DHT22;10017;54.350;18.532;2022-10-16T06:36:43;13.60;99.90
19732;DHT22;10017;54.350;18.532;2022-10-16T06:39:15;13.60;99.90
19732;DHT22;10017;54.350;18.532;2022-10-16T06:41:47;13.60;99.90
19732;DHT22;10017;54.350;18.532;2022-10-16T06:44:18;13.60;99.90
19732;DHT22;10017;54.350;18.532;2022-10-16T06:46:50;13.60;99.90
19732;DHT22;10017;54.350;18.532;2022-10-16T06:49:22;13.60;99.90
19732;DHT22;10017;54.350;18.532;2022-10-16T06:51:54;13.60;99.90
19732;DHT22;10017;54.350;18.532;2022-10-16T06:54:26;13.60;99.90
19732;DHT22;10017;54.350;18.532;2022-10-16T06:56:58;13.60;99.90
19732;DHT22;10017;54.350;18.532;2022-10-16T06:59:31;13.60;99.90
19732;DHT22;10017;54.350;18.532;2022-10-16T07:02:03;13.60;99.90
19732;DHT22;10017;54.350;18.532;2022-10-16T07:04:38;13.60;99.90
19732;DHT22;10017;54.350;18.532;2022-10-16T07:07:14;13.60;99.90
19732;DHT22;10017;54.350;18.532;2022-10-16T07:09:46;13.60;99.90
19732;DHT22;10017;54.350;18.532;2022-10-16T07:12:18;13.60;99.90
19732;DHT22;10017;54.350;18.532;2022-10-16T07:14:50;13.80;99.90
19732;DHT22;10017;54.350;18.532;2022-10-16T07:17:23;13.80;99.90
19732;DHT22;10017;54.350;18.532;2022-10-16T07:19:55;13.90;99.90
19732;DHT22;10017;54.350;18.532;2022-10-16T07:22:28;14.00;99.90
19732;DHT22;10017;54.350;18.532;2022-10-16T07:24:59;14.00;99.90
19732;DHT22;10017;54.350;18.532;2022-10-16T07:27:31;14.00;99.90
19732;DHT22;10017;54.350;18.532;2022-10-16T07:30:03;14.10;99.90
19732;DHT22;10017;54.350;18.532;2022-10-16T07:32:39;14.10;99.90
19732;DHT22;10017;54.350;18.532;2022-10-16T07:35:14;14.10;99.90
19732;DHT22;10017;54.350;18.532;2022-10-16T07:37:46;14.10;99.90
19732;DHT22;10017;54.350;18.532;2022-10-16T07:40:17;14.10;99.90
19732;DHT22;10017;54.350;18.532;2022-10-16T07:42:49;14.20;99.90
19732;DHT22;10017;54.350;18.532;2022-10-16T07:45:21;14.20;99.90
19732;DHT22;10017;54.350;18.532;2022-10-16T07:47:53;14.20;99.90
19732;DHT22;10017;54.350;18.532;2022-10-16T07:50:24;14.20;99.90
19732;DHT22;10017;54.350;18.532;2022-10-16T07:52:56;14.20;99.90
19732;DHT22;10017;54.350;18.532;2022-10-16T07:55:28;14.20;99.90
19732;DHT22;10017;54.350;18.532;2022-10-16T07:58:02;14.30;99.90
19732;DHT22;10017;54.350;18.532;2022-10-16T08:00:35;14.30;99.90
19732;DHT22;10017;54.350;18.532;2022-10-16T08:03:09;14.40;99.90
19732;DHT22;10017;54.350;18.532;2022-10-16T08:05:41;14.40;99.90
19732;DHT22;10017;54.350;18.532;2022-10-16T08:08:13;14.40;99.90
19732;DHT22;10017;54.350;18.532;2022-10-16T08:10:45;14.40;99.90
19732;DHT22;10017;54.350;18.532;2022-10-16T08:13:17;14.50;99.90
19732;DHT22;10017;54.350;18.532;2022-10-16T08:15:49;14.60;99.90
19732;DHT22;10017;54.350;18.532;2022-10-16T08:18:21;14.70;99.90
19732;DHT22;10017;54.350;18.532;2022-10-16T08:20:56;14.70;99.90
19732;DHT22;10017;54.350;18.532;2022-10-16T08:23:29;14.80;99.90
19732;DHT22;10017;54.350;18.532;2022-10-16T08:26:02;14.90;99.90
19732;DHT22;10017;54.350;18.532;2022-10-16T08:28:34;14.90;99.90
19732;DHT22;10017;54.350;18.532;2022-10-16T08:31:13;14.90;99.90
19732;DHT22;10017;54.350;18.532;2022-10-16T08:33:45;14.90;99.90
19732;DHT22;10017;54.350;18.532;2022-10-16T08:36:18;14.90;99.90
19732;DHT22;10017;54.350;18.532;2022-10-16T08:38:50;14.80;99.90
19732;DHT22;10017;54.350;18.532;2022-10-16T08:49:24;14.80;99.90
19732;DHT22;10017;54.350;18.532;2022-10-16T08:51:56;14.70;99.90
19732;DHT22;10017;54.350;18.532;2022-10-16T08:54:35;14.80;99.90
19732;DHT22;10017;54.350;18.532;2022-10-16T08:57:13;14.80;99.90
19732;DHT22;10017;54.350;18.532;2022-10-16T08:59:54;14.70;99.90
19732;DHT22;10017;54.350;18.532;2022-10-16T09:08:12;14.80;99.90
19732;DHT22;10017;54.350;18.532;2022-10-16T09:11:03;14.80;99.90
19732;DHT22;10017;54.350;18.532;2022-10-16T09:13:50;14.90;99.90
19732;DHT22;10017;54.350;18.532;2022-10-16T09:16:36;15.00;99.90
19732;DHT22;10017;54.350;18.532;2022-10-16T09:19:20;15.00;99.90
19732;DHT22;10017;54.350;18.532;2022-10-16T09:21:55;15.10;99.90
19732;DHT22;10017;54.350;18.532;2022-10-16T09:24:27;15.00;99.90
19732;DHT22;10017;54.350;18.532;2022-10-16T09:27:00;15.00;99.90
19732;DHT22;10017;54.350;18.532;2022-10-16T09:29:34;15.00;99.90
19732;DHT22;10017;54.350;18.532;2022-10-16T09:32:10;15.00;99.90
19732;DHT22;10017;54.350;18.532;2022-10-16T09:34:53;15.00;99.90
19732;DHT22;10017;54.350;18.532;2022-10-16T09:37:27;15.00;99.90
19732;DHT22;10017;54.350;18.532;2022-10-16T09:40:00;15.10;99.90
19732;DHT22;10017;54.350;18.532;2022-10-16T09:42:38;15.10;99.90
19732;DHT22;10017;54.350;18.532;2022-10-16T09:45:19;15.10;99.90
19732;DHT22;10017;54.350;18.532;2022-10-16T09:47:52;15.10;99.90
19732;DHT22;10017;54.350;18.532;2022-10-16T09:50:28;15.10;99.90
19732;DHT22;10017;54.350;18.532;2022-10-16T09:53:04;15.10;99.90
19732;DHT22;10017;54.350;18.532;2022-10-16T09:55:36;15.10;99.90
19732;DHT22;10017;54.350;18.532;2022-10-16T09:58:11;15.10;99.90
19732;DHT22;10017;54.350;18.532;2022-10-16T10:00:53;15.20;99.90
19732;DHT22;10017;54.350;18.532;2022-10-16T10:11:57;15.20;99.90
19732;DHT22;10017;54.350;18.532;2022-10-16T10:17:12;15.20;99.90
19732;DHT22;10017;54.350;18.532;2022-10-16T10:22:26;15.30;99.90
19732;DHT22;10017;54.350;18.532;2022-10-16T11:00:51;15.60;99.90
19732;DHT22;10017;54.350;18.532;2022-10-16T11:03:31;15.70;99.90
19732;DHT22;10017;54.350;18.532;2022-10-16T11:06:26;15.80;99.90
19732;DHT22;10017;54.350;18.532;2022-10-16T11:09:02;15.80;99.90
19732;DHT22;10017;54.350;18.532;2022-10-16T11:11:42;16.00;99.90
19732;DHT22;10017;54.350;18.532;2022-10-16T11:14:19;16.20;99.90
19732;DHT22;10017;54.350;18.532;2022-10-16T11:16:52;16.30;99.90
19732;DHT22;10017;54.350;18.532;2022-10-16T11:22:11;16.80;99.90
19732;DHT22;10017;54.350;18.532;2022-10-16T11:24:46;16.90;99.90
19732;DHT22;10017;54.350;18.532;2022-10-16T11:27:20;17.00;99.90
19732;DHT22;10017;54.350;18.532;2022-10-16T11:29:56;17.00;99.90
19732;DHT22;10017;54.350;18.532;2022-10-16T11:32:35;17.00;99.90
19732;DHT22;10017;54.350;18.532;2022-10-16T11:35:14;17.00;99.90
19732;DHT22;10017;54.350;18.532;2022-10-16T11:37:51;17.00;99.90
19732;DHT22;10017;54.350;18.532;2022-10-16T11:40:25;17.00;99.90
19732;DHT22;10017;54.350;18.532;2022-10-16T11:45:58;17.00;99.90
19732;DHT22;10017;54.350;18.532;2022-10-16T11:53:56;17.00;99.90
19732;DHT22;10017;54.350;18.532;2022-10-16T11:56:32;17.10;99.90
19732;DHT22;10017;54.350;18.532;2022-10-16T11:59:50;17.10;99.90
19732;DHT22;10017;54.350;18.532;2022-10-16T12:02:23;17.00;99.90
19732;DHT22;10017;54.350;18.532;2022-10-16T12:08:11;17.20;99.90
19732;DHT22;10017;54.350;18.532;2022-10-16T12:10:46;17.30;99.90
19732;DHT22;10017;54.350;18.532;2022-10-16T12:18:44;17.70;99.90
19732;DHT22;10017;54.350;18.532;2022-10-16T12:21:16;17.80;99.90
19732;DHT22;10017;54.350;18.532;2022-10-16T12:23:51;17.80;99.90
19732;DHT22;10017;54.350;18.532;2022-10-16T12:26:27;17.80;99.90
19732;DHT22;10017;54.350;18.532;2022-10-16T12:30:01;17.90;99.90
19732;DHT22;10017;54.350;18.532;2022-10-16T12:32:02;18.00;99.90
19732;DHT22;10017;54.350;18.532;2022-10-16T12:37:19;18.20;99.90
19732;DHT22;10017;54.350;18.532;2022-10-16T12:39:53;18.30;99.90
19732;DHT22;10017;54.350;18.532;2022-10-16T12:45:12;18.10;99.90
19732;DHT22;10017;54.350;18.532;2022-10-16T12:47:49;17.90;99.90
19732;DHT22;10017;54.350;18.532;2022-10-16T12:50:23;17.80;99.90
19732;DHT22;10017;54.350;18.532;2022-10-16T12:52:55;17.80;99.90
19732;DHT22;10017;54.350;18.532;2022-10-16T12:55:27;17.90;99.90
19732;DHT22;10017;54.350;18.532;2022-10-16T13:00:45;17.90;99.90
19732;DHT22;10017;54.350;18.532;2022-10-16T13:19:04;19.20;99.90
19732;DHT22;10017;54.350;18.532;2022-10-16T13:24:14;19.10;99.90
19732;DHT22;10017;54.350;18.532;2022-10-16T13:29:29;18.60;99.90
19732;DHT22;10017;54.350;18.532;2022-10-16T13:32:01;18.30;99.90
19732;DHT22;10017;54.350;18.532;2022-10-16T13:34:48;18.10;99.90
19732;DHT22;10017;54.350;18.532;2022-10-16T13:37:21;17.80;99.90
19732;DHT22;10017;54.350;18.532;2022-10-16T13:40:02;17.70;99.90
19732;DHT22;10017;54.350;18.532;2022-10-16T13:42:34;17.50;99.90
19732;DHT22;10017;54.350;18.532;2022-10-16T13:45:16;17.40;99.90
19732;DHT22;10017;54.350;18.532;2022-10-16T13:47:48;17.40;99.90
19732;DHT22;10017;54.350;18.532;2022-10-16T13:50:23;17.30;99.90
19732;DHT22;10017;54.350;18.532;2022-10-16T13:53:09;17.30;99.90
19732;DHT22;10017;54.350;18.532;2022-10-16T13:55:44;17.20;99.90
19732;DHT22;10017;54.350;18.532;2022-10-16T13:58:16;17.20;99.90
19732;DHT22;10017;54.350;18.532;2022-10-16T14:00:55;17.10;99.90
19732;DHT22;10017;54.350;18.532;2022-10-16T14:03:28;17.10;99.90
19732;DHT22;10017;54.350;18.532;2022-10-16T14:06:03;17.10;99.90
19732;DHT22;10017;54.350;18.532;2022-10-16T14:08:35;17.00;99.90
19732;DHT22;10017;54.350;18.532;2022-10-16T14:11:09;17.00;99.90
19732;DHT22;10017;54.350;18.532;2022-10-16T14:13:45;16.90;99.90
19732;DHT22;10017;54.350;18.532;2022-10-16T14:16:19;16.90;99.90
19732;DHT22;10017;54.350;18.532;2022-10-16T14:18:55;16.90;99.90
19732;DHT22;10017;54.350;18.532;2022-10-16T14:21:30;16.90;99.90
19732;DHT22;10017;54.350;18.532;2022-10-16T14:24:13;16.80;99.90
19732;DHT22;10017;54.350;18.532;2022-10-16T14:26:53;16.80;99.90
19732;DHT22;10017;54.350;18.532;2022-10-16T14:29:29;16.80;99.90
19732;DHT22;10017;54.350;18.532;2022-10-16T14:32:04;16.80;99.90
19732;DHT22;10017;54.350;18.532;2022-10-16T14:34:37;16.80;99.90
19732;DHT22;10017;54.350;18.532;2022-10-16T14:39:49;16.80;99.90
19732;DHT22;10017;54.350;18.532;2022-10-16T14:42:22;16.90;99.90
19732;DHT22;10017;54.350;18.532;2022-10-16T14:44:57;16.90;99.90
19732;DHT22;10017;54.350;18.532;2022-10-16T14:47:29;16.90;99.90
19732;DHT22;10017;54.350;18.532;2022-10-16T14:50:01;16.80;99.90
19732;DHT22;10017;54.350;18.532;2022-10-16T14:52:33;16.70;99.90
19732;DHT22;10017;54.350;18.532;2022-10-16T14:55:05;16.60;99.90
19732;DHT22;10017;54.350;18.532;2022-10-16T14:57:37;16.60;99.90
19732;DHT22;10017;54.350;18.532;2022-10-16T15:00:13;16.50;99.90
19732;DHT22;10017;54.350;18.532;2022-10-16T15:02:48;16.40;99.90
19732;DHT22;10017;54.350;18.532;2022-10-16T15:05:21;16.30;99.90
19732;DHT22;10017;54.350;18.532;2022-10-16T15:07:54;16.20;99.90
19732;DHT22;10017;54.350;18.532;2022-10-16T15:10:27;16.10;99.90
19732;DHT22;10017;54.350;18.532;2022-10-16T15:12:59;16.00;99.90
19732;DHT22;10017;54.350;18.532;2022-10-16T15:15:37;15.90;99.90
19732;DHT22;10017;54.350;18.532;2022-10-16T15:18:11;15.80;99.90
19732;DHT22;10017;54.350;18.532;2022-10-16T15:20:47;15.70;99.90
19732;DHT22;10017;54.350;18.532;2022-10-16T15:23:20;15.60;99.90
19732;DHT22;10017;54.350;18.532;2022-10-16T15:25:53;15.50;99.90
19732;DHT22;10017;54.350;18.532;2022-10-16T15:28:25;15.40;99.90
19732;DHT22;10017;54.350;18.532;2022-10-16T15:31:00;15.40;99.90
19732;DHT22;10017;54.350;18.532;2022-10-16T15:33:32;15.30;99.90
19732;DHT22;10017;54.350;18.532;2022-10-16T15:36:10;15.20;99.90
19732;DHT22;10017;54.350;18.532;2022-10-16T15:38:42;15.20;99.90
19732;DHT22;10017;54.350;18.532;2022-10-16T15:41:13;15.10;99.90
19732;DHT22;10017;54.350;18.532;2022-10-16T15:43:48;15.00;99.90
19732;DHT22;10017;54.350;18.532;2022-10-16T15:46:21;15.00;99.90
19732;DHT22;10017;54.350;18.532;2022-10-16T15:48:55;14.90;99.90
19732;DHT22;10017;54.350;18.532;2022-10-16T15:51:30;14.80;99.90
19732;DHT22;10017;54.350;18.532;2022-10-16T15:54:04;14.70;99.90
19732;DHT22;10017;54.350;18.532;2022-10-16T15:56:36;14.70;99.90
19732;DHT22;10017;54.350;18.532;2022-10-16T15:59:08;14.60;99.90
19732;DHT22;10017;54.350;18.532;2022-10-16T16:01:40;14.50;99.90
19732;DHT22;10017;54.350;18.532;2022-10-16T16:04:12;14.40;99.90
19732;DHT22;10017;54.350;18.532;2022-10-16T16:07:04;14.40;99.90
19732;DHT22;10017;54.350;18.532;2022-10-16T16:09:38;14.30;99.90
19732;DHT22;10017;54.350;18.532;2022-10-16T16:12:14;14.20;99.90
19732;DHT22;10017;54.350;18.532;2022-10-16T16:14:48;14.20;99.90
19732;DHT22;10017;54.350;18.532;2022-10-16T16:17:20;14.10;99.90
19732;DHT22;10017;54.350;18.532;2022-10-16T16:19:55;14.10;99.90
19732;DHT22;10017;54.350;18.532;2022-10-16T16:22:27;14.10;99.90
19732;DHT22;10017;54.350;18.532;2022-10-16T16:25:00;14.10;99.90
19732;DHT22;10017;54.350;18.532;2022-10-16T16:27:31;14.00;99.90
19732;DHT22;10017;54.350;18.532;2022-10-16T16:30:06;14.00;99.90
19732;DHT22;10017;54.350;18.532;2022-10-16T16:32:40;14.00;99.90
19732;DHT22;10017;54.350;18.532;2022-10-16T16:35:12;13.90;99.90
19732;DHT22;10017;54.350;18.532;2022-10-16T16:37:46;13.90;99.90
19732;DHT22;10017;54.350;18.532;2022-10-16T16:40:18;13.90;99.90
19732;DHT22;10017;54.350;18.532;2022-10-16T16:42:50;13.80;99.90
19732;DHT22;10017;54.350;18.532;2022-10-16T16:45:22;13.70;99.90
19732;DHT22;10017;54.350;18.532;2022-10-16T16:48:01;13.70;99.90
19732;DHT22;10017;54.350;18.532;2022-10-16T16:50:36;13.60;99.90
19732;DHT22;10017;54.350;18.532;2022-10-16T16:53:08;13.60;99.90
19732;DHT22;10017;54.350;18.532;2022-10-16T16:55:40;13.50;99.90
19732;DHT22;10017;54.350;18.532;2022-10-16T16:58:14;13.50;99.90
19732;DHT22;10017;54.350;18.532;2022-10-16T17:00:46;13.50;99.90
19732;DHT22;10017;54.350;18.532;2022-10-16T17:03:28;13.40;99.90
19732;DHT22;10017;54.350;18.532;2022-10-16T17:06:06;13.40;99.90
19732;DHT22;10017;54.350;18.532;2022-10-16T17:08:38;13.40;99.90
19732;DHT22;10017;54.350;18.532;2022-10-16T17:11:18;13.40;99.90
19732;DHT22;10017;54.350;18.532;2022-10-16T17:13:50;13.30;99.90
19732;DHT22;10017;54.350;18.532;2022-10-16T17:16:29;13.40;99.90
19732;DHT22;10017;54.350;18.532;2022-10-16T17:19:02;13.30;99.90
19732;DHT22;10017;54.350;18.532;2022-10-16T17:21:34;13.30;99.90
19732;DHT22;10017;54.350;18.532;2022-10-16T17:24:06;13.30;99.90
19732;DHT22;10017;54.350;18.532;2022-10-16T17:26:38;13.30;99.90
19732;DHT22;10017;54.350;18.532;2022-10-16T17:29:12;13.30;99.90
19732;DHT22;10017;54.350;18.532;2022-10-16T17:31:44;13.20;99.90
19732;DHT22;10017;54.350;18.532;2022-10-16T17:34:16;13.20;99.90
19732;DHT22;10017;54.350;18.532;2022-10-16T17:36:48;13.20;99.90
19732;DHT22;10017;54.350;18.532;2022-10-16T17:39:20;13.20;99.90
19732;DHT22;10017;54.350;18.532;2022-10-16T17:41:52;13.20;99.90
19732;DHT22;10017;54.350;18.532;2022-10-16T17:44:24;13.10;99.90
19732;DHT22;10017;54.350;18.532;2022-10-16T17:46:55;13.10;99.90
19732;DHT22;10017;54.350;18.532;2022-10-16T17:49:27;13.10;99.90
19732;DHT22;10017;54.350;18.532;2022-10-16T17:51:59;13.10;99.90
19732;DHT22;10017;54.350;18.532;2022-10-16T17:54:33;13.10;99.90
19732;DHT22;10017;54.350;18.532;2022-10-16T17:57:05;13.10;99.90
19732;DHT22;10017;54.350;18.532;2022-10-16T17:59:37;13.10;99.90
19732;DHT22;10017;54.350;18.532;2022-10-16T18:02:09;13.10;99.90
19732;DHT22;10017;54.350;18.532;2022-10-16T18:04:41;13.10;99.90